Time;durP1;ratioP1;P1;durP2;ratioP2;P2;SDS_P1;SDS_P2;PMS_P1;PMS_P2;Temp;Humidity;BMP_temperature;BMP_pressure;BME280_temperature;BME280_humidity;BME280_pressure;Samples;Min_cycle;Max_cycle;Signal;HPM_P1;HPM_P2
2021/11/06 00:01:48;;;;;;;19.55;10.30;;;;;;;13.39;59.04;95329.94;5056027;28;20071;-73
2021/11/06 00:04:14;;;;;;;24.00;9.73;;;;;;;13.33;59.07;95321.81;5090942;28;20032;-73
2021/11/06 00:06:44;;;;;;;26.30;10.50;;;;;;;13.34;58.63;95318.22;5072887;28;20028;-73
2021/11/06 00:09:09;;;;;;;24.63;10.07;;;;;;;13.44;58.14;95328.72;5073551;28;20024;-73
2021/11/06 00:11:34;;;;;;;23.88;9.77;;;;;;;13.38;57.75;95314.41;5090907;28;20035;-73
2021/11/06 00:14:00;;;;;;;29.05;10.07;;;;;;;13.49;58.20;95323.94;5090885;28;20070;-73
2021/11/06 00:16:25;;;;;;;21.17;9.38;;;;;;;13.50;58.35;95326.41;5089637;28;20024;-73
2021/11/06 00:18:51;;;;;;;24.83;10.77;;;;;;;13.46;58.42;95313.78;5089709;28;20028;-73
2021/11/06 00:21:16;;;;;;;22.77;9.65;;;;;;;13.45;58.68;95317.31;5076784;28;20055;-73
2021/11/06 00:23:42;;;;;;;25.17;10.52;;;;;;;13.36;58.86;95314.53;5093752;28;20032;-73
2021/11/06 00:26:07;;;;;;;20.80;10.60;;;;;;;13.33;59.03;95322.63;5093805;28;20033;-73
2021/11/06 00:28:32;;;;;;;24.42;11.35;;;;;;;13.31;58.96;95321.94;5076963;28;20024;-73
2021/11/06 00:30:58;;;;;;;24.83;11.75;;;;;;;13.23;59.21;95324.34;5076786;28;20028;-74
2021/11/06 00:33:23;;;;;;;25.13;10.15;;;;;;;13.19;59.59;95336.81;5059937;28;20035;-74
2021/11/06 00:35:49;;;;;;;23.42;11.13;;;;;;;13.11;59.37;95325.38;5059889;28;20050;-73
2021/11/06 00:38:14;;;;;;;18.75;9.50;;;;;;;13.19;59.25;95338.59;5059930;28;20020;-73
2021/11/06 00:40:40;;;;;;;27.42;10.02;;;;;;;13.22;58.68;95337.53;5076715;28;20097;-73
2021/11/06 00:43:05;;;;;;;21.42;10.45;;;;;;;13.18;58.70;95336.97;5093312;28;20103;-74
2021/11/06 00:45:31;;;;;;;20.60;9.40;;;;;;;13.18;58.59;95336.97;5093356;28;20047;-73
2021/11/06 00:47:56;;;;;;;22.95;9.80;;;;;;;13.19;58.64;95343.81;5093529;28;20028;-74
2021/11/06 00:50:21;;;;;;;25.63;9.52;;;;;;;13.22;58.34;95351.38;5076347;28;20036;-73
2021/11/06 00:52:48;;;;;;;25.05;8.68;;;;;;;13.26;58.42;95355.44;5093329;28;20032;-73
2021/11/06 00:55:14;;;;;;;26.92;8.60;;;;;;;13.26;58.09;95352.81;5059711;28;20040;-73
2021/11/06 00:57:39;;;;;;;31.38;8.50;;;;;;;13.25;58.08;95352.91;5076309;28;20023;-74
2021/11/06 01:00:06;;;;;;;15.98;8.05;;;;;;;13.20;58.36;95345.47;5075939;28;20052;-73
2021/11/06 01:02:32;;;;;;;19.02;7.97;;;;;;;13.25;58.40;95360.75;5093303;28;20111;-73
2021/11/06 01:04:57;;;;;;;16.13;8.70;;;;;;;13.19;58.98;95357.69;5092912;28;20039;-73
2021/11/06 01:07:23;;;;;;;16.77;8.13;;;;;;;13.15;58.96;95352.88;5076048;28;20046;-73
2021/11/06 01:09:48;;;;;;;19.40;8.05;;;;;;;13.08;58.81;95333.47;5092855;28;20036;-74
2021/11/06 01:12:13;;;;;;;22.15;7.47;;;;;;;13.12;58.51;95342.69;5059233;28;20024;-73
2021/11/06 01:14:39;;;;;;;22.25;8.38;;;;;;;13.10;58.27;95345.44;5075905;28;20090;-73
2021/11/06 01:17:05;;;;;;;23.48;8.38;;;;;;;13.06;58.29;95344.03;5094049;28;20057;-73
2021/11/06 01:19:30;;;;;;;19.90;8.15;;;;;;;13.05;58.21;95352.00;5092674;28;20028;-73
2021/11/06 01:21:55;;;;;;;21.52;8.77;;;;;;;13.04;58.51;95348.56;5092614;28;20059;-73
2021/11/06 01:24:21;;;;;;;27.20;10.20;;;;;;;13.03;58.78;95359.94;5093726;28;20043;-73
2021/11/06 01:26:46;;;;;;;22.60;10.27;;;;;;;12.94;59.00;95358.91;5093780;28;20024;-73
2021/11/06 01:29:12;;;;;;;25.42;10.05;;;;;;;12.85;59.02;95343.22;5093715;28;20036;-73
2021/11/06 01:31:37;;;;;;;23.75;9.75;;;;;;;12.91;59.12;95359.19;5074401;28;20036;-73
2021/11/06 01:34:03;;;;;;;22.45;9.05;;;;;;;12.84;59.23;95362.41;5058808;28;20027;-74
2021/11/06 01:36:28;;;;;;;21.60;9.05;;;;;;;12.88;59.25;95380.31;5092398;28;20051;-74
2021/11/06 01:38:54;;;;;;;21.05;8.80;;;;;;;12.81;59.23;95358.28;5058687;28;20073;-73
2021/11/06 01:41:19;;;;;;;21.77;7.95;;;;;;;12.89;59.11;95374.13;5075615;28;20032;-73
2021/11/06 01:43:44;;;;;;;20.15;8.88;;;;;;;12.87;58.75;95360.41;5093451;28;20024;-73
2021/11/06 01:46:10;;;;;;;19.95;8.73;;;;;;;12.94;58.83;95373.75;5093788;28;20109;-73
2021/11/06 01:48:35;;;;;;;23.42;9.48;;;;;;;12.88;58.79;95356.00;5093408;28;20028;-73
2021/11/06 01:51:01;;;;;;;16.33;9.52;;;;;;;12.93;58.78;95365.09;5092285;28;20086;-73
2021/11/06 01:53:27;;;;;;;22.67;8.27;;;;;;;12.89;58.73;95373.31;5092182;28;20036;-74
2021/11/06 01:55:53;;;;;;;21.15;8.52;;;;;;;12.91;58.94;95381.84;5075335;28;20021;-73
2021/11/06 01:58:22;;;;;;;16.70;8.23;;;;;;;12.87;58.87;95370.84;5075298;28;20032;-73
2021/11/06 02:00:48;;;;;;;25.92;9.18;;;;;;;12.80;58.93;95372.28;5075163;28;20055;-73
2021/11/06 02:03:14;;;;;;;23.23;8.35;;;;;;;12.82;58.94;95378.22;5074967;28;20050;-73
2021/11/06 02:05:41;;;;;;;22.52;8.98;;;;;;;12.80;59.09;95380.09;5075327;28;20028;-73
2021/11/06 02:08:06;;;;;;;21.35;8.73;;;;;;;12.69;59.11;95348.88;5091837;28;20101;-73
2021/11/06 02:10:32;;;;;;;25.58;8.48;;;;;;;12.79;59.18;95368.03;5091716;28;20471;-73
2021/11/06 02:12:57;;;;;;;22.45;8.85;;;;;;;12.78;59.36;95371.56;5091799;28;20035;-73
2021/11/06 02:15:23;;;;;;;22.35;8.73;;;;;;;12.70;59.57;95353.13;5093100;28;20032;-74
2021/11/06 02:17:50;;;;;;;20.13;8.93;;;;;;;12.70;59.34;95367.03;5074892;28;20028;-73
2021/11/06 02:20:15;;;;;;;22.40;8.82;;;;;;;12.72;59.58;95375.53;5091613;28;20081;-74
2021/11/06 02:22:41;;;;;;;21.75;9.15;;;;;;;12.70;59.67;95374.84;5057868;28;20028;-73
2021/11/06 02:25:07;;;;;;;17.60;9.45;;;;;;;12.59;60.36;95361.88;5091456;28;20062;-73
2021/11/06 02:27:32;;;;;;;19.50;9.10;;;;;;;12.67;60.24;95384.66;5074606;28;20032;-72
2021/11/06 02:29:58;;;;;;;27.73;11.45;;;;;;;12.64;61.02;95387.53;5091274;28;20033;-73
2021/11/06 02:32:23;;;;;;;27.35;14.25;;;;;;;12.50;61.71;95388.66;5091357;28;20089;-73
2021/11/06 02:34:49;;;;;;;22.67;13.05;;;;;;;12.49;62.00;95410.47;5091340;28;20040;-73
2021/11/06 02:37:15;;;;;;;24.20;11.00;;;;;;;12.43;61.75;95393.56;5091264;28;20031;-73
2021/11/06 02:39:40;;;;;;;24.80;10.02;;;;;;;12.44;60.85;95400.41;5091167;28;20073;-74
2021/11/06 02:42:08;;;;;;;16.70;8.63;;;;;;;12.50;60.62;95402.50;5090940;28;20032;-73
2021/11/06 02:44:33;;;;;;;26.48;9.82;;;;;;;12.48;60.53;95404.44;5091201;28;20050;-73
2021/11/06 02:46:59;;;;;;;27.27;8.45;;;;;;;12.49;60.35;95376.59;5092271;28;20410;-73
2021/11/06 02:49:25;;;;;;;26.73;10.27;;;;;;;12.51;61.37;95396.38;5092085;28;20085;-73
2021/11/06 02:51:50;;;;;;;24.65;9.27;;;;;;;12.44;61.48;95397.78;5074189;28;20028;-73
2021/11/06 02:54:15;;;;;;;18.40;10.18;;;;;;;12.49;61.80;95424.31;5073884;28;20485;-73
2021/11/06 02:56:41;;;;;;;26.95;12.93;;;;;;;12.43;62.64;95431.81;5090906;28;20038;-74
2021/11/06 02:59:07;;;;;;;26.25;12.82;;;;;;;12.28;62.93;95426.03;5074015;28;20448;-74
2021/11/06 03:01:33;;;;;;;25.65;10.55;;;;;;;12.26;63.11;95448.78;5057143;28;20518;-73
2021/11/06 03:03:58;;;;;;;27.02;10.90;;;;;;;12.20;63.32;95441.44;5090746;28;20024;-74
2021/11/06 03:06:24;;;;;;;22.85;9.80;;;;;;;12.18;63.13;95443.38;5090605;28;20382;-73
2021/11/06 03:08:49;;;;;;;16.73;8.75;;;;;;;12.17;63.29;95450.31;5090572;28;20513;-73
2021/11/06 03:11:15;;;;;;;24.95;8.90;;;;;;;12.13;63.59;95440.28;5073877;28;20043;-73
2021/11/06 03:13:40;;;;;;;16.23;9.65;;;;;;;11.97;63.95;95433.66;5073728;28;20418;-73
2021/11/06 03:16:10;;;;;;;21.42;10.30;;;;;;;11.86;64.10;95433.69;5073763;28;20395;-73
2021/11/06 03:18:36;;;;;;;20.63;8.98;;;;;;;11.94;63.21;95436.50;5056984;28;20034;-73
2021/11/06 03:21:01;;;;;;;19.90;8.55;;;;;;;11.91;62.68;95434.16;5090585;28;20036;-73
2021/11/06 03:23:28;;;;;;;19.20;8.70;;;;;;;11.97;62.29;95433.66;5090286;28;20578;-74
2021/11/06 03:25:56;;;;;;;18.98;8.50;;;;;;;11.95;62.50;95432.13;5091894;28;20024;-74
2021/11/06 03:28:21;;;;;;;19.02;7.97;;;;;;;11.90;62.60;95423.88;5073490;28;20023;-73
2021/11/06 03:30:47;;;;;;;21.77;9.13;;;;;;;11.96;62.39;95434.63;5090196;28;20097;-74
2021/11/06 03:33:13;;;;;;;22.10;8.20;;;;;;;11.95;62.31;95443.41;5073419;28;20069;-74
2021/11/06 03:35:38;;;;;;;16.67;7.60;;;;;;;11.91;62.64;95448.94;5091648;28;20032;-74
2021/11/06 03:38:04;;;;;;;21.40;8.30;;;;;;;11.88;63.05;95438.78;5091368;28;20069;-73
2021/11/06 03:40:29;;;;;;;21.55;7.28;;;;;;;11.92;63.38;95454.03;5090162;28;20039;-73
2021/11/06 03:42:55;;;;;;;19.88;7.47;;;;;;;11.90;63.93;95449.91;5091277;28;20024;-74
2021/11/06 03:45:20;;;;;;;13.55;7.28;;;;;;;11.90;63.74;95460.31;5056501;28;20040;-73
2021/11/06 03:47:46;;;;;;;16.80;7.47;;;;;;;11.85;63.73;95460.63;5056506;28;20020;-73
2021/11/06 03:50:11;;;;;;;20.38;8.02;;;;;;;11.88;63.81;95463.03;5090017;28;20090;-73
2021/11/06 03:52:37;;;;;;;18.58;7.70;;;;;;;11.85;63.84;95461.50;5053759;28;20218;-72
2021/11/06 03:55:03;;;;;;;15.30;6.90;;;;;;;11.84;63.69;95459.81;5082479;28;20473;-72
2021/11/06 03:57:28;;;;;;;15.68;7.55;;;;;;;11.83;63.70;95437.31;5088491;28;20031;-71
2021/11/06 03:59:54;;;;;;;16.70;7.82;;;;;;;11.83;63.81;95449.50;5064330;28;20049;-71
2021/11/06 04:02:19;;;;;;;20.60;8.50;;;;;;;11.88;63.49;95465.63;5085510;28;20028;-71
2021/11/06 04:04:45;;;;;;;19.73;8.25;;;;;;;11.80;63.55;95471.41;5074876;28;20035;-72
2021/11/06 04:07:10;;;;;;;24.33;8.68;;;;;;;11.82;63.84;95482.53;5070807;28;20039;-72
2021/11/06 04:09:36;;;;;;;22.15;7.97;;;;;;;11.78;64.33;95485.47;5089124;28;20036;-72
2021/11/06 04:12:01;;;;;;;19.33;7.28;;;;;;;11.79;64.37;95477.56;5068803;28;20144;-72
2021/11/06 04:14:26;;;;;;;19.17;8.23;;;;;;;11.83;63.83;95467.72;5088241;28;20044;-72
2021/11/06 04:16:53;;;;;;;14.05;6.93;;;;;;;11.83;63.47;95465.13;5089904;28;20370;-71
2021/11/06 04:19:18;;;;;;;22.50;8.48;;;;;;;11.89;63.75;95464.69;5072039;28;20032;-73
2021/11/06 04:21:44;;;;;;;18.55;8.20;;;;;;;11.88;64.11;95470.84;5062060;28;20036;-73
2021/11/06 04:24:09;;;;;;;13.35;6.25;;;;;;;11.91;63.81;95475.81;5075321;28;20085;-72
2021/11/06 04:26:35;;;;;;;17.33;6.50;;;;;;;11.92;63.74;95467.03;5087331;28;20483;-72
2021/11/06 04:29:00;;;;;;;15.13;7.22;;;;;;;11.92;63.91;95456.63;5088502;28;20482;-72
2021/11/06 04:31:26;;;;;;;15.18;7.05;;;;;;;11.92;63.91;95455.81;5087724;28;20032;-72
2021/11/06 04:33:51;;;;;;;22.63;8.90;;;;;;;11.87;63.87;95443.16;5088594;28;20449;-73
2021/11/06 04:36:17;;;;;;;20.63;8.10;;;;;;;11.94;63.89;95475.56;5071552;28;20418;-73
2021/11/06 04:38:43;;;;;;;16.63;7.70;;;;;;;11.90;64.44;95487.19;5088166;28;20062;-73
2021/11/06 04:41:08;;;;;;;15.60;7.18;;;;;;;11.86;64.80;95475.34;5089146;28;20085;-73
2021/11/06 04:43:34;;;;;;;16.65;6.85;;;;;;;11.86;64.89;95477.94;5084158;28;20032;-73
2021/11/06 04:46:00;;;;;;;17.45;7.40;;;;;;;11.93;64.82;95483.50;5070195;28;20028;-71
2021/11/06 04:48:25;;;;;;;18.58;7.53;;;;;;;11.93;64.37;95483.50;5051407;28;20502;-71
2021/11/06 04:50:50;;;;;;;17.90;7.88;;;;;;;12.07;64.27;95496.28;5054107;28;20553;-71
2021/11/06 04:53:16;;;;;;;13.40;7.45;;;;;;;11.96;64.28;95491.91;5070775;28;20067;-72
2021/11/06 04:55:41;;;;;;;16.58;7.80;;;;;;;12.05;64.25;95505.97;5090067;28;20047;-72
2021/11/06 04:58:07;;;;;;;17.05;7.57;;;;;;;12.02;64.16;95507.03;5071284;28;20043;-73
2021/11/06 05:00:32;;;;;;;19.48;8.30;;;;;;;12.01;64.73;95515.00;5087062;28;20060;-73
2021/11/06 05:02:57;;;;;;;18.95;7.53;;;;;;;12.01;64.77;95520.19;5071696;28;20036;-72
2021/11/06 05:05:23;;;;;;;13.60;7.07;;;;;;;11.98;64.83;95516.06;5089242;28;20028;-73
2021/11/06 05:07:49;;;;;;;18.00;6.97;;;;;;;12.01;64.78;95523.63;5091896;28;20028;-74
2021/11/06 05:10:15;;;;;;;13.77;8.18;;;;;;;12.02;64.88;95524.44;5075684;28;20077;-74
2021/11/06 05:12:40;;;;;;;18.42;10.00;;;;;;;12.02;64.86;95520.06;5092968;28;20420;-73
2021/11/06 05:15:06;;;;;;;17.17;9.18;;;;;;;11.96;65.10;95520.56;5090865;28;20563;-73
2021/11/06 05:17:32;;;;;;;18.73;10.07;;;;;;;11.94;65.22;95538.06;5074201;28;20509;-73
2021/11/06 05:19:58;;;;;;;15.80;8.93;;;;;;;11.92;65.23;95545.16;5057295;28;20043;-73
2021/11/06 05:22:24;;;;;;;18.38;8.80;;;;;;;11.95;65.23;95544.94;5074682;28;20024;-73
2021/11/06 05:24:49;;;;;;;16.00;8.32;;;;;;;11.90;65.21;95549.66;5058311;28;20035;-73
2021/11/06 05:27:15;;;;;;;18.02;8.25;;;;;;;11.91;65.21;95540.06;5075116;28;20032;-73
2021/11/06 05:29:40;;;;;;;18.42;9.38;;;;;;;11.93;65.45;95546.81;5091417;28;20474;-73
2021/11/06 05:32:06;;;;;;;14.20;7.60;;;;;;;11.92;65.58;95563.38;5089477;28;20414;-73
2021/11/06 05:34:32;;;;;;;14.68;8.90;;;;;;;11.79;65.54;95544.41;5061718;28;20067;-73
2021/11/06 05:36:57;;;;;;;22.58;10.95;;;;;;;11.89;65.61;95561.00;5072493;28;20028;-74
2021/11/06 05:39:22;;;;;;;25.42;14.50;;;;;;;12.01;65.63;95578.31;5072421;28;20090;-74
2021/11/06 05:41:48;;;;;;;22.67;13.52;;;;;;;12.00;65.59;95563.63;5059174;28;20020;-75
2021/11/06 05:44:13;;;;;;;25.77;11.98;;;;;;;12.11;65.57;95559.38;5074269;28;20036;-74
2021/11/06 05:46:39;;;;;;;20.80;11.45;;;;;;;12.06;65.46;95549.28;5057758;28;20101;-74
2021/11/06 05:49:04;;;;;;;28.27;12.95;;;;;;;12.18;65.23;95553.56;5072090;28;20028;-73
2021/11/06 05:51:30;;;;;;;23.27;12.80;;;;;;;12.19;65.20;95546.59;5092411;28;20555;-73
2021/11/06 05:53:55;;;;;;;21.25;11.77;;;;;;;12.24;65.03;95554.88;5090880;28;20519;-73
2021/11/06 05:56:21;;;;;;;23.70;11.88;;;;;;;12.19;65.15;95546.59;5072680;28;20555;-73
2021/11/06 05:58:46;;;;;;;24.15;11.88;;;;;;;12.39;65.12;95579.72;5090904;28;20425;-73
2021/11/06 06:01:12;;;;;;;22.33;10.90;;;;;;;12.44;65.13;95577.59;5071749;28;20143;-72
2021/11/06 06:03:37;;;;;;;24.92;12.43;;;;;;;12.43;64.97;95570.72;5057235;28;20106;-73
2021/11/06 06:06:03;;;;;;;23.38;13.52;;;;;;;12.43;64.93;95570.72;5054829;28;20051;-73
2021/11/06 06:08:29;;;;;;;29.95;11.95;;;;;;;12.55;64.60;95594.16;5069562;28;20025;-72
2021/11/06 06:10:54;;;;;;;23.63;13.40;;;;;;;12.59;64.53;95592.97;5091279;28;20024;-73
2021/11/06 06:13:20;;;;;;;43.72;17.17;;;;;;;12.46;65.08;95595.72;5073517;28;20032;-72
2021/11/06 06:15:45;;;;;;;46.85;24.73;;;;;;;12.45;64.70;95592.28;5091162;28;20071;-73
2021/11/06 06:18:10;;;;;;;44.63;22.85;;;;;;;12.50;64.69;95610.97;5090084;28;20032;-73
2021/11/06 06:20:36;;;;;;;26.95;16.83;;;;;;;12.45;64.48;95605.31;5072086;28;20040;-74
2021/11/06 06:23:01;;;;;;;28.85;15.15;;;;;;;12.43;64.41;95612.44;5089933;28;20212;-73
2021/11/06 06:25:27;;;;;;;24.20;12.75;;;;;;;12.50;64.44;95629.22;5074100;28;20097;-74
2021/11/06 06:27:52;;;;;;;27.33;13.23;;;;;;;12.49;64.40;95632.78;5087761;28;20062;-73
2021/11/06 06:30:18;;;;;;;24.95;14.93;;;;;;;12.53;64.59;95644.63;5079909;28;20422;-72
2021/11/06 06:32:44;;;;;;;27.58;16.35;;;;;;;12.56;64.69;95640.94;5090423;28;20032;-73
2021/11/06 06:35:09;;;;;;;25.25;13.95;;;;;;;12.64;64.63;95650.78;5073647;28;20075;-72
2021/11/06 06:37:35;;;;;;;28.50;13.70;;;;;;;12.66;64.96;95652.31;5070804;28;20522;-73
2021/11/06 06:40:00;;;;;;;27.20;11.65;;;;;;;12.69;65.25;95661.69;5073615;28;20479;-73
2021/11/06 06:42:26;;;;;;;21.40;11.25;;;;;;;12.76;65.18;95673.31;5070187;28;20032;-73
2021/11/06 06:44:52;;;;;;;19.95;10.95;;;;;;;12.80;65.15;95676.50;5071633;28;20070;-74
2021/11/06 06:47:17;;;;;;;29.48;11.77;;;;;;;12.83;64.86;95674.47;5080536;28;20085;-73
2021/11/06 06:49:44;;;;;;;22.48;10.85;;;;;;;12.87;65.01;95667.22;5053703;28;20029;-73
2021/11/06 06:52:10;;;;;;;19.15;10.57;;;;;;;12.73;65.63;95656.13;5053458;28;20077;-73
2021/11/06 06:54:35;;;;;;;17.65;9.38;;;;;;;12.75;66.01;95669.03;5050683;28;20041;-73
2021/11/06 06:57:01;;;;;;;16.92;9.75;;;;;;;12.81;66.32;95673.75;5069891;28;20032;-73
2021/11/06 06:59:26;;;;;;;20.92;10.18;;;;;;;12.87;65.78;95673.31;5052454;28;20059;-73
2021/11/06 07:01:52;;;;;;;15.65;8.30;;;;;;;12.97;65.76;95695.09;5059889;28;20079;-73
2021/11/06 07:04:17;;;;;;;19.40;10.10;;;;;;;13.05;65.79;95691.88;5056260;28;20043;-73
2021/11/06 07:06:43;;;;;;;21.75;10.65;;;;;;;13.14;64.98;95685.94;5073083;28;20409;-73
2021/11/06 07:09:08;;;;;;;17.17;9.68;;;;;;;13.32;64.82;95690.69;5072694;28;20028;-73
2021/11/06 07:11:34;;;;;;;17.33;9.45;;;;;;;13.53;65.94;95693.34;5073618;28;20099;-73
2021/11/06 07:13:59;;;;;;;20.15;10.57;;;;;;;13.81;67.31;95691.94;5052430;28;20025;-73
2021/11/06 07:16:25;;;;;;;26.13;11.27;;;;;;;14.11;71.18;95675.50;5036124;28;20024;-73
2021/11/06 07:18:50;;;;;;;20.08;13.32;;;;;;;14.47;69.92;95676.81;5036564;28;20025;-73
2021/11/06 07:21:16;;;;;;;17.52;12.20;;;;;;;14.77;69.45;95682.22;5068959;28;20032;-73
2021/11/06 07:23:41;;;;;;;18.90;11.88;;;;;;;14.96;67.66;95677.06;5071896;28;20032;-72
2021/11/06 07:26:07;;;;;;;15.50;9.82;;;;;;;15.13;65.99;95684.28;5066807;28;20044;-73
2021/11/06 07:28:33;;;;;;;16.67;10.45;;;;;;;15.24;64.32;95685.09;5068321;28;20020;-73
2021/11/06 07:30:58;;;;;;;20.42;8.98;;;;;;;15.28;62.45;95676.03;5069011;28;20032;-73
2021/11/06 07:33:24;;;;;;;16.80;8.35;;;;;;;15.33;61.25;95679.91;5071006;28;20466;-73
2021/11/06 07:35:49;;;;;;;17.60;9.65;;;;;;;15.32;60.33;95667.78;5076767;28;20277;-72
2021/11/06 07:38:15;;;;;;;23.70;9.38;;;;;;;15.31;59.62;95670.53;5091045;28;20089;-72
2021/11/06 07:40:40;;;;;;;19.38;8.65;;;;;;;15.29;59.12;95665.41;5090581;28;20028;-73
2021/11/06 07:43:06;;;;;;;14.10;7.40;;;;;;;15.26;58.81;95660.44;5069865;28;20058;-72
2021/11/06 07:45:33;;;;;;;20.67;9.80;;;;;;;15.29;58.80;95656.75;5088175;28;20489;-72
2021/11/06 07:47:58;;;;;;;22.55;11.32;;;;;;;15.32;58.79;95666.94;5089161;28;20023;-72
2021/11/06 07:50:24;;;;;;;27.77;12.90;;;;;;;15.31;58.93;95670.53;5071821;28;20069;-73
2021/11/06 07:52:49;;;;;;;21.88;11.32;;;;;;;15.31;59.13;95662.66;5089073;28;20433;-73
2021/11/06 07:55:15;;;;;;;19.10;11.05;;;;;;;15.42;59.11;95659.94;5072520;28;20383;-73
2021/11/06 07:57:41;;;;;;;37.08;22.15;;;;;;;15.49;59.09;95668.91;5085718;28;20029;-73
2021/11/06 08:00:10;;;;;;;21.92;12.85;;;;;;;15.54;58.97;95669.31;5066083;28;20429;-71
2021/11/06 08:02:36;;;;;;;18.83;10.77;;;;;;;15.57;58.82;95663.81;5068574;28;20033;-72
2021/11/06 08:05:01;;;;;;;17.38;10.48;;;;;;;15.63;58.79;95671.13;5069442;28;20029;-72
2021/11/06 08:07:26;;;;;;;19.00;11.10;;;;;;;15.65;58.06;95669.16;5069582;28;20479;-72
2021/11/06 08:09:52;;;;;;;21.48;10.77;;;;;;;15.56;58.38;95667.38;5070920;28;20037;-72
2021/11/06 08:12:17;;;;;;;18.98;10.52;;;;;;;15.65;58.55;95677.03;5069447;28;20031;-73
2021/11/06 08:14:43;;;;;;;15.45;9.60;;;;;;;15.70;58.56;95663.56;5070823;28;20036;-73
2021/11/06 08:17:09;;;;;;;19.45;10.68;;;;;;;15.67;57.88;95663.81;5052642;28;20498;-73
2021/11/06 08:19:35;;;;;;;24.15;14.93;;;;;;;15.56;58.16;95680.47;5070337;28;20041;-72
2021/11/06 08:22:00;;;;;;;20.70;11.50;;;;;;;15.57;58.99;95671.69;5080921;28;20536;-73
2021/11/06 08:24:26;;;;;;;19.58;11.10;;;;;;;15.59;58.28;95685.44;5086806;28;20059;-73
2021/11/06 08:26:52;;;;;;;18.90;11.05;;;;;;;15.65;58.80;95690.13;5088655;28;20024;-73
2021/11/06 08:29:17;;;;;;;20.63;13.38;;;;;;;15.69;57.89;95689.91;5056231;28;20032;-73
2021/11/06 08:31:43;;;;;;;22.02;12.18;;;;;;;15.74;58.50;95703.38;5089603;28;20496;-72
2021/11/06 08:34:09;;;;;;;16.63;9.85;;;;;;;15.88;58.62;95700.38;5073171;28;20036;-73
2021/11/06 08:36:34;;;;;;;17.75;10.02;;;;;;;15.97;57.38;95696.09;5089500;28;20020;-73
2021/11/06 08:39:00;;;;;;;16.88;10.85;;;;;;;15.93;57.89;95692.09;5089524;28;20031;-73
2021/11/06 08:41:25;;;;;;;15.73;10.88;;;;;;;15.91;57.89;95697.50;5093746;28;20496;-73
2021/11/06 08:43:51;;;;;;;18.58;10.48;;;;;;;15.99;58.15;95704.63;5085447;28;20035;-73
2021/11/06 08:46:16;;;;;;;18.15;11.45;;;;;;;16.06;58.27;95688.22;5089940;28;20035;-73
2021/11/06 08:48:42;;;;;;;17.27;11.35;;;;;;;16.13;58.11;95692.91;5080323;28;20025;-73
2021/11/06 08:51:07;;;;;;;21.55;10.98;;;;;;;16.17;57.57;95694.28;5072509;28;20071;-73
2021/11/06 08:53:33;;;;;;;25.13;12.60;;;;;;;16.11;57.59;95693.06;5055860;28;20040;-73
2021/11/06 08:55:58;;;;;;;22.63;13.25;;;;;;;16.17;57.73;95691.66;5073349;28;20028;-73
2021/11/06 08:58:23;;;;;;;18.73;11.52;;;;;;;16.22;57.50;95708.63;5073398;28;20024;-72
2021/11/06 09:00:49;;;;;;;18.20;11.02;;;;;;;16.25;57.43;95692.63;5074316;28;20480;-72
2021/11/06 09:03:18;;;;;;;21.42;12.55;;;;;;;16.25;58.08;95691.81;5056622;28;20035;-73
2021/11/06 09:05:49;;;;;;;19.00;12.25;;;;;;;16.30;58.16;95698.28;5073072;28;20056;-72
2021/11/06 09:08:14;;;;;;;18.67;12.25;;;;;;;16.31;58.00;95701.72;5074431;28;20056;-73
2021/11/06 09:10:40;;;;;;;17.08;11.07;;;;;;;16.33;58.09;95705.03;5073040;28;20422;-73
2021/11/06 09:13:05;;;;;;;14.23;10.25;;;;;;;16.37;58.01;95702.94;5072169;28;20025;-73
2021/11/06 09:15:30;;;;;;;16.25;10.05;;;;;;;16.37;57.96;95701.16;5074558;28;20029;-73
2021/11/06 09:17:56;;;;;;;15.13;10.23;;;;;;;16.41;58.02;95713.03;5073129;28;20039;-72
2021/11/06 09:20:22;;;;;;;13.85;10.35;;;;;;;16.45;57.97;95703.91;5074164;28;20033;-73
2021/11/06 09:22:48;;;;;;;20.95;12.38;;;;;;;16.49;57.64;95699.19;5072654;28;20421;-72
2021/11/06 09:25:13;;;;;;;20.48;12.75;;;;;;;16.35;58.21;95702.25;5074244;28;20094;-73
2021/11/06 09:27:39;;;;;;;18.02;13.60;;;;;;;16.33;58.68;95710.28;5072874;28;20486;-73
2021/11/06 09:30:05;;;;;;;16.00;11.38;;;;;;;16.34;58.49;95711.91;5056082;28;20509;-72
2021/11/06 09:32:31;;;;;;;14.85;11.30;;;;;;;16.39;58.46;95709.72;5056361;28;20036;-73
2021/11/06 09:34:56;;;;;;;14.43;10.27;;;;;;;16.43;58.20;95710.25;5074028;28;20036;-74
2021/11/06 09:37:22;;;;;;;14.55;11.07;;;;;;;16.45;58.10;95703.06;5072570;28;20033;-73
2021/11/06 09:39:47;;;;;;;15.80;11.68;;;;;;;16.42;57.86;95704.19;5072325;28;20626;-73
2021/11/06 09:42:13;;;;;;;17.52;10.88;;;;;;;16.25;58.19;95691.81;5073507;28;20033;-73
2021/11/06 09:44:39;;;;;;;17.63;12.00;;;;;;;16.23;58.15;95693.72;5055846;28;20032;-73
2021/11/06 09:47:08;;;;;;;19.58;11.65;;;;;;;16.15;58.67;95706.72;5072406;28;20021;-73
2021/11/06 09:49:34;;;;;;;23.05;15.05;;;;;;;16.17;59.00;95700.34;5056117;28;20036;-73
2021/11/06 09:51:59;;;;;;;21.60;14.05;;;;;;;16.14;59.17;95681.47;5072294;28;20051;-72
2021/11/06 09:54:25;;;;;;;18.27;11.95;;;;;;;16.26;58.96;95694.25;5073364;28;20383;-73
2021/11/06 09:56:50;;;;;;;18.73;12.50;;;;;;;16.23;58.48;95683.25;5072124;28;20070;-73
2021/11/06 09:59:15;;;;;;;21.92;13.55;;;;;;;16.24;58.79;95680.50;5073132;28;20032;-73
2021/11/06 10:01:41;;;;;;;15.57;11.80;;;;;;;16.36;58.78;95677.72;5073400;28;20056;-72
2021/11/06 10:04:09;;;;;;;19.63;12.05;;;;;;;16.42;58.78;95680.59;5055017;28;20024;-73
2021/11/06 10:06:44;;;;;;;15.82;11.48;;;;;;;16.50;58.54;95677.25;5071868;28;20055;-73
2021/11/06 10:09:11;;;;;;;19.88;14.63;;;;;;;16.53;58.49;95674.34;5056278;28;20032;-73
2021/11/06 10:11:36;;;;;;;20.63;12.15;;;;;;;16.54;58.36;95674.19;5055024;28;20462;-72
2021/11/06 10:14:07;;;;;;;16.13;11.60;;;;;;;16.61;57.99;95681.50;5071716;28;20024;-73
2021/11/06 10:16:41;;;;;;;14.18;9.88;;;;;;;16.67;58.07;95680.94;5071604;28;20032;-73
2021/11/06 10:19:13;;;;;;;14.63;11.52;;;;;;;16.71;57.83;95677.84;5072738;28;20020;-73
2021/11/06 10:21:43;;;;;;;13.85;10.55;;;;;;;16.74;57.88;95672.34;5071423;28;20025;-73
2021/11/06 10:24:09;;;;;;;13.65;10.70;;;;;;;16.79;58.03;95671.94;5054924;28;20039;-72
2021/11/06 10:26:35;;;;;;;18.08;11.60;;;;;;;16.70;57.68;95642.09;5054773;28;20033;-73
2021/11/06 10:29:07;;;;;;;16.85;12.00;;;;;;;16.88;57.57;95662.34;5072447;28;20490;-73
2021/11/06 10:31:34;;;;;;;13.45;9.23;;;;;;;16.92;57.63;95656.69;5071188;28;20033;-73
2021/11/06 10:34:09;;;;;;;13.57;10.35;;;;;;;16.98;57.60;95661.34;5054642;28;20449;-73
2021/11/06 10:36:35;;;;;;;14.07;9.98;;;;;;;17.06;57.60;95659.81;5054650;28;20580;-73
2021/11/06 10:39:09;;;;;;;14.02;9.52;;;;;;;17.12;57.44;95661.84;5071085;28;20044;-73
2021/11/06 10:41:36;;;;;;;15.68;10.50;;;;;;;17.15;57.19;95653.66;5072203;28;20056;-73
2021/11/06 10:44:03;;;;;;;13.30;11.13;;;;;;;17.24;56.93;95662.44;5070922;28;20039;-73
2021/11/06 10:46:29;;;;;;;16.52;13.48;;;;;;;17.25;56.92;95646.56;5054399;28;20482;-73
2021/11/06 10:48:55;;;;;;;19.17;11.60;;;;;;;17.35;56.44;95655.19;5070883;28;20029;-73
2021/11/06 10:51:21;;;;;;;18.02;12.30;;;;;;;17.43;56.61;95657.06;5054264;28;20033;-73
2021/11/06 10:53:50;;;;;;;19.05;13.15;;;;;;;17.42;56.26;95651.00;5072202;28;20024;-73
2021/11/06 10:56:38;;;;;;;17.40;12.55;;;;;;;17.47;55.96;95652.34;5038207;28;20453;-73
2021/11/06 10:59:09;;;;;;;15.50;11.10;;;;;;;17.50;56.18;95647.63;5070696;28;20095;-73
2021/11/06 11:01:40;;;;;;;;;;;;;;;17.51;56.07;95646.66;5071337;28;20426;-73
2021/11/06 11:04:09;;;;;;;18.23;11.95;;;;;;;17.49;56.14;95651.22;5070698;28;19923;-73
2021/11/06 11:06:38;;;;;;;16.33;12.20;;;;;;;17.53;56.11;95641.25;5070772;28;20058;-73
2021/11/06 11:09:07;;;;;;;15.43;11.55;;;;;;;17.53;55.99;95641.25;5070652;28;20474;-73
2021/11/06 11:11:33;;;;;;;16.73;11.80;;;;;;;17.55;55.86;95641.91;5037532;28;20041;-73
2021/11/06 11:14:04;;;;;;;16.42;12.10;;;;;;;17.57;55.93;95642.59;5070595;28;20032;-73
2021/11/06 11:16:30;;;;;;;17.15;12.10;;;;;;;17.61;55.77;95649.22;5053901;28;20433;-73